• Join FlightAware (Why Join?)
  • Login
  • US Flag 
03:21AM EST


 

Airport Tracker/Info


-or-


 

Live Flight TrackerFlight Track Log ✈ UAL4550 ✈ 05-Mar-2014 ✈ KIAH - KBTR

Flight Track Log - Related Links

Times and Time Zones

All times are in EST time to prevent confusion due to time zone crossing. See the UAL4550 flight status page for this flight to view local times or setup timezone preferences in your user account.

Time Position Orientation Groundspeed Altitude Reporting Facility
EST Latitude Longitude Course Direction KTS MPH feet Rate Location/Type
11:23AM 29.9833 -94.6239 90° East  Level FlightAware Approximate
11:24AM 29.9834 -94.5057 90° East  Level FlightAware Approximate
11:25AM 29.9834 -94.3875 90° East  Level FlightAware Approximate
11:26AM 29.9893 -94.2700 77° East  Level FlightAware Approximate
11:27AM 30.0124 -94.1548 77° East  Level FlightAware Approximate
11:28AM 30.0241 -94.0375 85° East  Level FlightAware Approximate
11:29AM 30.0331 -93.9197 85° East  Level FlightAware Approximate
11:30AM 30.0515 -93.8037 82° East  Level FlightAware Approximate
11:31AM 30.0654 -93.6865 82° East  Level FlightAware Approximate
11:32AM 30.0792 -93.5692 82° East  Level FlightAware Approximate
11:33AM 30.0929 -93.4519 82° East  Level FlightAware Approximate
11:34AM 30.1065 -93.3346 82° East  Level FlightAware Approximate
11:35AM 30.1200 -93.2172 82° East  Level FlightAware Approximate
11:36AM 30.1334 -93.0999 78° East  Level FlightAware Approximate
11:37AM 30.1539 -92.9838 78° East  Level FlightAware Approximate
11:38AM 30.1744 -92.8678 78° East  Level FlightAware Approximate
11:39AM 30.1982 -92.7526 75° East  Level FlightAware Approximate
11:40AM 30.2246 -92.6381 75° East  Level FlightAware Approximate
11:41AM 30.2463 -92.5223 79° East  Level FlightAware Approximate
11:42AM 30.2657 -92.4059 79° East  Level FlightAware Approximate
11:43AM 30.2877 -92.2901 77° East  Level FlightAware Approximate
11:44AM 30.3098 -92.1743 78° East  Level FlightAware Approximate
11:45AM 30.3317 -92.0584 78° East  Level FlightAware Approximate
11:46AM 30.3500 -91.9420 78° East  Level FlightAware Approximate
11:47AM 30.3726 -91.8263 74° East  Level FlightAware Approximate
11:48AM 30.4011 -91.7123 74° East  Level FlightAware Approximate
11:49AM 30.4174 -91.5961 78° East  Level FlightAware Approximate
11:50AM 30.4385 -91.4799 78° East  Level FlightAware Approximate
11:51AM 30.4630 -91.3647 74° East  Level FlightAware Approximate
11:52AM 30.4898 -91.2537 60° Northeast  Level FlightAware Approximate
11:53AM 30.5156 -91.1397 79° East  Level FlightAware Approximate
11:54AM 30.5167 -91.1333 79° East  Level FlightAware Approximate
11:55AM 30.5329 -91.1499 79° East  Level Estimated
11:56AM 30.5329 -91.1499 79° East  Level Estimated
11:57AM 30.5329 -91.1499 79° East  Level Estimated
11:58AM 30.5329 -91.1499 79° East  Level Estimated
11:59AM 30.5329 -91.1499 79° East  Level Estimated